createdAt,value
2023-05-19T00:02:16.099Z,11.53
2023-05-19T00:04:49.632Z,11.50
2023-05-19T00:07:21.820Z,11.48
2023-05-19T00:09:54.550Z,11.47
2023-05-19T00:12:27.285Z,11.46
2023-05-19T00:14:59.733Z,11.46
2023-05-19T00:17:31.561Z,11.45
2023-05-19T00:20:07.389Z,11.44
2023-05-19T00:22:39.247Z,11.44
2023-05-19T00:25:12.121Z,11.43
2023-05-19T00:27:43.939Z,11.44
2023-05-19T00:30:16.857Z,11.47
2023-05-19T00:32:48.758Z,11.48
2023-05-19T00:35:20.762Z,11.46
2023-05-19T00:37:52.635Z,11.42
2023-05-19T00:40:25.166Z,11.39
2023-05-19T00:42:57.626Z,11.34
2023-05-19T00:45:29.714Z,11.29
2023-05-19T00:48:01.732Z,11.25
2023-05-19T00:50:33.961Z,11.23
2023-05-19T00:53:06.936Z,11.22
2023-05-19T00:55:40.607Z,11.21
2023-05-19T00:58:13.879Z,11.16
2023-05-19T01:00:45.869Z,11.14
2023-05-19T01:05:53.810Z,11.06
2023-05-19T01:08:26.228Z,11.04
2023-05-19T01:10:58.119Z,11.04
2023-05-19T01:13:30.370Z,11.04
2023-05-19T01:16:06.831Z,11.04
2023-05-19T01:18:48.974Z,11.05
2023-05-19T01:22:02.129Z,11.05
2023-05-19T01:25:05.221Z,11.01
2023-05-19T01:27:51.357Z,10.96
2023-05-19T01:30:28.870Z,10.92
2023-05-19T01:33:02.937Z,10.90
2023-05-19T01:35:38.530Z,10.92
2023-05-19T01:38:11.651Z,10.96
2023-05-19T01:40:46.244Z,10.98
2023-05-19T01:43:20.699Z,11.00
2023-05-19T01:45:53.291Z,11.01
2023-05-19T01:48:25.646Z,11.04
2023-05-19T01:50:57.914Z,11.06
2023-05-19T01:53:29.811Z,11.05
2023-05-19T01:56:01.830Z,11.05
2023-05-19T01:58:41.423Z,11.05
2023-05-19T02:01:24.367Z,11.04
2023-05-19T02:04:09.460Z,11.00
2023-05-19T02:06:46.485Z,10.95
2023-05-19T02:09:22.694Z,10.92
2023-05-19T02:12:00.387Z,10.90
2023-05-19T02:14:38.313Z,10.88
2023-05-19T02:17:11.312Z,10.89
2023-05-19T02:19:43.787Z,10.88
2023-05-19T02:22:15.762Z,10.89
2023-05-19T02:24:48.013Z,10.91
2023-05-19T02:27:19.880Z,10.86
2023-05-19T02:29:51.764Z,10.81
2023-05-19T02:32:23.832Z,10.78
2023-05-19T02:34:56.574Z,10.73
2023-05-19T02:37:31.226Z,10.69
2023-05-19T02:40:03.057Z,10.70
2023-05-19T02:42:35.292Z,10.70
2023-05-19T02:45:08.529Z,10.69
2023-05-19T02:47:41.566Z,10.69
2023-05-19T02:50:13.762Z,10.68
2023-05-19T02:52:45.607Z,10.67
2023-05-19T02:55:17.802Z,10.66
2023-05-19T02:57:49.621Z,10.65
2023-05-19T03:00:21.883Z,10.60
2023-05-19T03:02:54.298Z,10.62
2023-05-19T03:05:26.151Z,10.58
2023-05-19T03:07:58.010Z,10.58
2023-05-19T03:10:30.478Z,10.61
2023-05-19T03:13:02.472Z,10.66
2023-05-19T03:15:35.331Z,10.71
2023-05-19T03:18:08.265Z,10.73
2023-05-19T03:20:42.491Z,10.71
2023-05-19T03:23:12.864Z,10.70
2023-05-19T03:25:45.359Z,10.69
2023-05-19T03:28:17.292Z,10.69
2023-05-19T03:30:50.932Z,10.68
2023-05-19T03:33:28.146Z,10.70
2023-05-19T03:36:00.367Z,10.72
2023-05-19T03:38:36.442Z,10.72
2023-05-19T03:41:08.560Z,10.71
2023-05-19T03:43:40.471Z,10.73
2023-05-19T03:46:12.629Z,10.73
2023-05-19T03:49:04.553Z,10.76
2023-05-19T03:51:55.975Z,10.79
2023-05-19T03:54:42.789Z,10.83
2023-05-19T03:57:15.054Z,10.85
2023-05-19T03:59:46.978Z,10.87
2023-05-19T04:02:18.961Z,10.87
2023-05-19T04:04:51.679Z,10.90
2023-05-19T04:07:23.604Z,10.92
2023-05-19T04:09:55.572Z,10.93
2023-05-19T04:12:27.354Z,10.92
2023-05-19T04:14:59.175Z,10.94
2023-05-19T04:17:31.062Z,10.92
2023-05-19T04:20:02.949Z,10.94
2023-05-19T04:22:34.855Z,10.97
2023-05-19T04:25:07.704Z,11.00
2023-05-19T04:27:40.008Z,11.05
2023-05-19T04:30:13.266Z,11.08
2023-05-19T04:32:45.136Z,11.12
2023-05-19T04:35:17.618Z,11.14
2023-05-19T04:37:49.812Z,11.18
2023-05-19T04:40:24.022Z,11.22
2023-05-19T04:42:57.280Z,11.25
2023-05-19T04:45:30.218Z,11.30
2023-05-19T04:48:04.151Z,11.32
2023-05-19T04:50:38.661Z,11.28
2023-05-19T04:53:11.474Z,11.28
2023-05-19T04:55:44.103Z,11.33
2023-05-19T04:58:17.274Z,11.38
2023-05-19T05:00:49.260Z,11.42
2023-05-19T05:03:23.071Z,11.38
2023-05-19T05:05:56.784Z,11.40
2023-05-19T05:08:30.316Z,11.42
2023-05-19T05:11:03.300Z,11.40
2023-05-19T05:13:36.041Z,11.40
2023-05-19T05:16:09.451Z,11.46
2023-05-19T05:18:44.923Z,11.54
2023-05-19T05:21:17.996Z,11.60
2023-05-19T05:23:51.214Z,11.62
2023-05-19T05:26:24.490Z,11.70
2023-05-19T05:28:56.442Z,11.81
2023-05-19T05:31:28.846Z,11.94
2023-05-19T05:34:01.034Z,12.05
2023-05-19T05:36:35.056Z,12.14
2023-05-19T05:39:07.083Z,12.17
2023-05-19T05:41:39.809Z,12.19
2023-05-19T05:44:15.406Z,12.16
2023-05-19T05:46:49.535Z,12.17
2023-05-19T05:49:22.208Z,12.22
2023-05-19T05:52:05.758Z,12.27
2023-05-19T05:54:43.798Z,12.36
2023-05-19T05:57:19.225Z,12.42
2023-05-19T05:59:51.353Z,12.51
2023-05-19T06:02:23.352Z,12.63
2023-05-19T06:04:55.478Z,12.64
2023-05-19T06:07:27.483Z,12.65
2023-05-19T06:09:59.322Z,12.71
2023-05-19T06:12:31.199Z,12.77
2023-05-19T06:15:03.127Z,12.77
2023-05-19T06:17:56.129Z,12.79
2023-05-19T06:20:28.033Z,12.80
2023-05-19T06:23:01.249Z,12.80
2023-05-19T06:25:33.817Z,12.75
2023-05-19T06:28:06.125Z,12.74
2023-05-19T06:30:38.027Z,12.76
2023-05-19T06:33:19.341Z,12.77
2023-05-19T06:35:51.331Z,12.75
2023-05-19T06:38:23.351Z,12.73
2023-05-19T06:40:55.655Z,12.73
2023-05-19T06:43:27.510Z,12.70
2023-05-19T06:46:07.094Z,12.65
2023-05-19T06:48:38.983Z,12.67
2023-05-19T06:51:11.275Z,12.69
2023-05-19T06:53:43.684Z,12.72
2023-05-19T06:56:17.150Z,12.71
2023-05-19T06:58:49.123Z,12.74
2023-05-19T07:01:21.274Z,12.77
2023-05-19T07:03:57.752Z,12.80
2023-05-19T07:06:29.669Z,12.83
2023-05-19T07:09:02.028Z,12.89
2023-05-19T07:11:35.014Z,12.96
2023-05-19T07:14:07.139Z,13.04
2023-05-19T07:16:39.121Z,13.11
2023-05-19T07:19:11.120Z,13.12
2023-05-19T07:21:43.546Z,13.10
2023-05-19T07:24:15.346Z,13.12
2023-05-19T07:26:47.095Z,13.16
2023-05-19T07:29:18.956Z,13.18
2023-05-19T07:31:54.283Z,13.21
2023-05-19T07:34:26.284Z,13.28
2023-05-19T07:36:58.114Z,13.32
2023-05-19T07:39:32.384Z,13.36
2023-05-19T07:42:04.550Z,13.42
2023-05-19T07:44:36.237Z,13.48
2023-05-19T07:47:08.627Z,13.55
2023-05-19T07:49:40.543Z,13.63
2023-05-19T07:52:12.769Z,13.69
2023-05-19T07:54:45.618Z,13.73
2023-05-19T07:57:19.016Z,13.77
2023-05-19T07:59:50.745Z,13.77
2023-05-19T08:02:22.792Z,13.77
2023-05-19T08:04:54.899Z,13.80
2023-05-19T08:07:26.795Z,13.84
2023-05-19T08:09:58.545Z,13.80
2023-05-19T08:12:30.415Z,13.77
2023-05-19T08:15:02.498Z,13.81
2023-05-19T08:17:34.353Z,13.84
2023-05-19T08:20:08.708Z,13.86
2023-05-19T08:22:40.646Z,13.91
2023-05-19T08:25:13.883Z,13.96
2023-05-19T08:27:45.683Z,14.03
2023-05-19T08:30:17.521Z,14.19
2023-05-19T08:32:49.490Z,14.38
2023-05-19T08:35:21.417Z,14.48
2023-05-19T08:37:53.572Z,14.53
2023-05-19T08:40:27.347Z,14.61
2023-05-19T08:42:59.148Z,14.69
2023-05-19T08:45:31.258Z,14.73
2023-05-19T08:48:03.427Z,14.77
2023-05-19T08:50:40.616Z,14.78
2023-05-19T08:53:31.869Z,14.76
2023-05-19T08:56:10.201Z,14.77
2023-05-19T08:58:44.234Z,14.79
2023-05-19T09:01:17.531Z,14.76
2023-05-19T09:03:50.692Z,14.69
2023-05-19T09:06:22.573Z,14.67
2023-05-19T09:08:54.424Z,14.68
2023-05-19T09:11:26.191Z,14.69
2023-05-19T09:13:58.029Z,14.68
2023-05-19T09:16:30.469Z,14.70
2023-05-19T09:19:02.687Z,14.73
2023-05-19T09:21:34.704Z,14.79
2023-05-19T09:24:09.257Z,14.82
2023-05-19T09:26:41.949Z,14.88
2023-05-19T09:29:18.447Z,14.95
2023-05-19T09:31:55.983Z,14.97
2023-05-19T09:34:27.929Z,14.99
2023-05-19T09:36:59.999Z,14.97
2023-05-19T09:39:32.834Z,14.91
2023-05-19T09:42:07.356Z,14.88
2023-05-19T09:44:39.155Z,14.88
2023-05-19T09:47:12.081Z,14.96
2023-05-19T09:49:48.566Z,15.07
2023-05-19T09:52:20.375Z,15.17
2023-05-19T09:54:52.440Z,15.21
2023-05-19T09:57:28.948Z,15.25
2023-05-19T10:00:01.236Z,15.34
2023-05-19T10:02:34.204Z,15.39
2023-05-19T10:05:07.592Z,15.45
2023-05-19T10:07:40.491Z,15.47
2023-05-19T10:10:14.988Z,15.49
2023-05-19T10:12:46.728Z,15.51
2023-05-19T10:15:21.412Z,15.52
2023-05-19T10:17:54.948Z,15.57
2023-05-19T10:20:26.959Z,15.67
2023-05-19T10:22:58.743Z,15.77
2023-05-19T10:25:31.065Z,15.83
2023-05-19T10:28:07.822Z,15.82
2023-05-19T10:30:42.496Z,15.83
2023-05-19T10:33:16.584Z,15.81
2023-05-19T10:36:17.560Z,15.82
2023-05-19T10:38:53.922Z,15.91
2023-05-19T10:41:30.017Z,15.95
2023-05-19T10:44:10.961Z,15.88
2023-05-19T10:46:43.832Z,15.88
2023-05-19T10:49:23.043Z,15.93
2023-05-19T10:51:57.974Z,15.98
2023-05-19T10:54:44.384Z,16.01
2023-05-19T10:57:18.548Z,16.04
2023-05-19T10:59:49.968Z,16.08
2023-05-19T11:02:39.613Z,16.11
2023-05-19T11:05:14.489Z,16.12
2023-05-19T11:07:56.195Z,16.15
2023-05-19T11:10:28.182Z,16.19
2023-05-19T11:13:01.151Z,16.12
2023-05-19T11:15:37.446Z,16.07
2023-05-19T11:18:10.690Z,16.10
2023-05-19T11:20:43.125Z,16.15
2023-05-19T11:23:18.849Z,16.18
2023-05-19T11:25:52.217Z,16.22
2023-05-19T11:28:27.996Z,16.33
2023-05-19T11:31:02.284Z,16.39
2023-05-19T11:33:34.963Z,16.42
2023-05-19T11:36:07.162Z,16.41
2023-05-19T11:38:38.946Z,16.38
2023-05-19T11:41:10.764Z,16.37
2023-05-19T11:43:42.861Z,16.34
2023-05-19T11:46:14.781Z,16.35
2023-05-19T11:48:50.562Z,16.42
2023-05-19T11:51:24.161Z,16.48
2023-05-19T11:53:56.049Z,16.55
2023-05-19T11:56:27.901Z,16.63
2023-05-19T11:58:59.646Z,16.69
2023-05-19T12:01:32.097Z,16.76
2023-05-19T12:04:04.322Z,16.81
2023-05-19T12:06:36.955Z,16.88
2023-05-19T12:09:09.971Z,16.90
2023-05-19T12:11:42.620Z,16.92
2023-05-19T12:14:14.649Z,16.97
2023-05-19T12:16:46.921Z,17.03
2023-05-19T12:19:18.858Z,17.05
2023-05-19T12:21:51.170Z,17.04
2023-05-19T12:24:24.393Z,16.98
2023-05-19T12:27:09.033Z,16.96
2023-05-19T12:29:40.891Z,16.97
2023-05-19T12:32:12.881Z,16.93
2023-05-19T12:34:44.826Z,16.79
2023-05-19T12:37:17.085Z,16.59
2023-05-19T12:39:49.267Z,16.45
2023-05-19T12:42:21.142Z,16.35
2023-05-19T12:44:55.552Z,16.30
2023-05-19T12:47:34.798Z,16.32
2023-05-19T12:50:08.461Z,16.36
2023-05-19T12:52:45.638Z,16.39
2023-05-19T12:55:17.538Z,16.41
2023-05-19T12:57:54.729Z,16.41
2023-05-19T13:00:28.950Z,16.43
2023-05-19T13:03:03.094Z,16.47
2023-05-19T13:05:36.029Z,16.51
2023-05-19T13:08:09.892Z,16.57
2023-05-19T13:10:40.635Z,16.63
2023-05-19T13:13:12.964Z,16.68
2023-05-19T13:15:45.996Z,16.73
2023-05-19T13:18:18.467Z,16.80
2023-05-19T13:20:51.489Z,16.81
2023-05-19T13:23:23.297Z,16.82
2023-05-19T13:25:55.082Z,16.78
2023-05-19T13:28:27.038Z,16.80
2023-05-19T13:30:59.583Z,16.82
2023-05-19T13:33:31.565Z,16.83
2023-05-19T13:36:03.423Z,16.80
2023-05-19T13:38:35.282Z,16.81
2023-05-19T13:41:09.376Z,16.80
2023-05-19T13:43:42.673Z,16.76
2023-05-19T13:46:14.592Z,16.69
2023-05-19T13:48:46.707Z,16.60
2023-05-19T13:51:18.550Z,16.50
2023-05-19T13:53:50.450Z,16.44
2023-05-19T13:56:22.310Z,16.43
2023-05-19T13:58:54.843Z,16.43
2023-05-19T14:01:26.704Z,16.39
2023-05-19T14:03:58.741Z,16.34
2023-05-19T14:06:30.789Z,16.34
2023-05-19T14:09:02.878Z,16.32
2023-05-19T14:11:34.683Z,16.32
2023-05-19T14:14:08.395Z,16.29
2023-05-19T14:16:41.226Z,16.20
2023-05-19T14:19:13.169Z,16.11
2023-05-19T14:21:45.132Z,16.06
2023-05-19T14:24:16.921Z,16.01
2023-05-19T14:26:49.596Z,16.01
2023-05-19T14:29:21.506Z,16.04
2023-05-19T14:31:53.380Z,16.04
2023-05-19T14:34:25.187Z,16.11
2023-05-19T14:36:57.205Z,16.18
2023-05-19T14:39:30.174Z,16.17
2023-05-19T14:42:02.050Z,16.19
2023-05-19T14:44:34.477Z,16.23
2023-05-19T14:47:08.660Z,16.27
2023-05-19T14:49:40.665Z,16.29
2023-05-19T14:52:12.477Z,16.26
2023-05-19T14:54:47.887Z,16.22
2023-05-19T14:57:19.910Z,16.21
2023-05-19T14:59:51.869Z,16.21
2023-05-19T15:02:23.810Z,16.19
2023-05-19T15:04:55.879Z,16.16
2023-05-19T15:07:27.861Z,16.11
2023-05-19T15:09:59.807Z,16.08
2023-05-19T15:12:31.697Z,16.05
2023-05-19T15:15:04.012Z,16.02
2023-05-19T15:17:36.461Z,15.98
2023-05-19T15:20:10.020Z,15.98
2023-05-19T15:22:42.032Z,16.01
2023-05-19T15:25:14.756Z,16.05
2023-05-19T15:27:46.629Z,16.02
2023-05-19T15:30:18.827Z,16.02
2023-05-19T15:32:50.755Z,16.06
2023-05-19T15:35:22.615Z,16.11
2023-05-19T15:37:54.505Z,16.15
2023-05-19T15:40:26.400Z,16.19
2023-05-19T15:42:58.205Z,16.20
2023-05-19T15:45:31.200Z,16.19
2023-05-19T15:48:03.411Z,16.12
2023-05-19T15:50:35.818Z,16.06
2023-05-19T15:53:09.014Z,16.01
2023-05-19T15:55:41.089Z,16.00
2023-05-19T15:58:13.843Z,15.98
2023-05-19T16:00:46.417Z,15.98
2023-05-19T16:03:19.152Z,15.98
2023-05-19T16:05:51.357Z,15.95
2023-05-19T16:08:23.348Z,15.88
2023-05-19T16:10:55.292Z,15.79
2023-05-19T16:13:27.063Z,15.76
2023-05-19T16:15:59.150Z,15.73
2023-05-19T16:18:31.037Z,15.70
2023-05-19T16:21:02.805Z,15.71
2023-05-19T16:23:34.643Z,15.70
2023-05-19T16:26:06.450Z,15.67
2023-05-19T16:28:38.263Z,15.65
2023-05-19T16:31:10.066Z,15.62
2023-05-19T16:33:42.540Z,15.59
2023-05-19T16:36:15.305Z,15.53
2023-05-19T16:38:47.415Z,15.49
2023-05-19T16:41:19.184Z,15.46
2023-05-19T16:43:51.023Z,15.43
2023-05-19T16:46:23.000Z,15.40
2023-05-19T16:48:54.889Z,15.39
2023-05-19T16:51:26.739Z,15.37
2023-05-19T16:53:58.537Z,15.34
2023-05-19T16:56:30.558Z,15.32
2023-05-19T16:59:02.364Z,15.30
2023-05-19T17:01:34.210Z,15.29
2023-05-19T17:04:06.255Z,15.28
2023-05-19T17:06:38.166Z,15.28
2023-05-19T17:09:09.947Z,15.27
2023-05-19T17:11:41.756Z,15.27
2023-05-19T17:14:13.564Z,15.28
2023-05-19T17:16:45.453Z,15.31
2023-05-19T17:19:17.374Z,15.33
2023-05-19T17:21:49.303Z,15.36
2023-05-19T17:24:21.181Z,15.39
2023-05-19T17:26:53.041Z,15.41
2023-05-19T17:29:24.909Z,15.43
2023-05-19T17:31:56.755Z,15.40
2023-05-19T17:34:30.071Z,15.40
2023-05-19T17:37:02.109Z,15.41
2023-05-19T17:39:33.979Z,15.38
2023-05-19T17:42:06.668Z,15.34
2023-05-19T17:44:38.486Z,15.27
2023-05-19T17:47:10.852Z,15.26
2023-05-19T17:49:42.870Z,15.27
2023-05-19T17:52:15.952Z,15.30
2023-05-19T17:54:48.714Z,15.33
2023-05-19T17:57:20.927Z,15.34
2023-05-19T17:59:53.784Z,15.34
2023-05-19T18:02:26.456Z,15.33
2023-05-19T18:05:00.150Z,15.32
2023-05-19T18:07:32.107Z,15.32
2023-05-19T18:10:04.630Z,15.33
2023-05-19T18:12:36.505Z,15.35
2023-05-19T18:15:09.693Z,15.33
2023-05-19T18:17:41.526Z,15.33
2023-05-19T18:20:15.315Z,15.29
2023-05-19T18:22:47.135Z,15.28
2023-05-19T18:25:20.103Z,15.26
2023-05-19T18:27:55.739Z,15.26
2023-05-19T18:30:27.645Z,15.26
2023-05-19T18:33:02.105Z,15.27
2023-05-19T18:35:34.061Z,15.29
2023-05-19T18:38:05.904Z,15.29
2023-05-19T18:40:38.944Z,15.29
2023-05-19T18:43:10.896Z,15.27
2023-05-19T18:45:42.869Z,15.24
2023-05-19T18:48:15.450Z,15.23
2023-05-19T18:50:47.772Z,15.23
2023-05-19T18:53:19.646Z,15.18
2023-05-19T18:55:51.845Z,15.14
2023-05-19T18:58:24.240Z,15.08
2023-05-19T19:00:58.663Z,15.04
2023-05-19T19:03:30.712Z,15.05
2023-05-19T19:06:02.787Z,15.07
2023-05-19T19:08:34.618Z,15.08
2023-05-19T19:11:09.377Z,15.08
2023-05-19T19:13:41.219Z,15.08
2023-05-19T19:16:13.148Z,15.08
2023-05-19T19:18:45.099Z,15.06
2023-05-19T19:21:19.303Z,15.04
2023-05-19T19:23:49.509Z,15.04
2023-05-19T19:26:21.819Z,15.03
2023-05-19T19:28:53.613Z,15.00
2023-05-19T19:31:25.900Z,15.01
2023-05-19T19:34:00.901Z,15.02
2023-05-19T19:36:32.984Z,15.02
2023-05-19T19:39:04.799Z,15.06
2023-05-19T19:41:36.713Z,15.07
2023-05-19T19:44:09.034Z,15.09
2023-05-19T19:46:41.163Z,15.09
2023-05-19T19:49:12.963Z,15.10
2023-05-19T19:51:44.844Z,15.09
2023-05-19T19:54:16.777Z,15.08
2023-05-19T19:56:48.595Z,15.03
2023-05-19T19:59:20.366Z,14.96
2023-05-19T20:01:52.315Z,14.90
2023-05-19T20:04:24.275Z,14.89
2023-05-19T20:06:56.485Z,14.89
2023-05-19T20:09:28.258Z,14.87
2023-05-19T20:12:00.046Z,14.85
2023-05-19T20:14:32.066Z,14.83
2023-05-19T20:17:04.521Z,14.82
2023-05-19T20:19:36.362Z,14.81
2023-05-19T20:22:08.556Z,14.83
2023-05-19T20:24:40.746Z,14.87
2023-05-19T20:27:12.523Z,14.90
2023-05-19T20:29:45.530Z,14.94
2023-05-19T20:32:17.459Z,14.96
2023-05-19T20:34:49.361Z,14.92
2023-05-19T20:37:22.146Z,14.85
2023-05-19T20:39:54.548Z,14.79
2023-05-19T20:42:26.735Z,14.75
2023-05-19T20:44:58.717Z,14.76
2023-05-19T20:47:30.742Z,14.78
2023-05-19T20:50:02.854Z,14.81
2023-05-19T20:52:34.801Z,14.78
2023-05-19T20:55:07.197Z,14.75
2023-05-19T20:57:39.032Z,14.76
2023-05-19T21:00:12.623Z,14.76
2023-05-19T21:02:44.475Z,14.77
2023-05-19T21:05:16.449Z,14.76
2023-05-19T21:07:48.499Z,14.76
2023-05-19T21:10:20.610Z,14.76
2023-05-19T21:12:52.466Z,14.77
2023-05-19T21:15:24.696Z,14.76
2023-05-19T21:17:56.602Z,14.74
2023-05-19T21:20:29.252Z,14.72
2023-05-19T21:23:01.925Z,14.72
2023-05-19T21:25:34.160Z,14.72
2023-05-19T21:28:06.222Z,14.77
2023-05-19T21:30:37.956Z,14.77
2023-05-19T21:33:09.909Z,14.74
2023-05-19T21:35:41.780Z,14.76
2023-05-19T21:38:23.383Z,14.77
2023-05-19T21:40:59.375Z,14.79
2023-05-19T21:43:31.290Z,14.82
2023-05-19T21:46:03.054Z,14.83
2023-05-19T21:48:35.030Z,14.86
2023-05-19T21:51:07.413Z,14.87
2023-05-19T21:53:39.226Z,14.84
2023-05-19T21:56:11.286Z,14.79
2023-05-19T21:58:43.553Z,14.78
2023-05-19T22:01:15.496Z,14.75
2023-05-19T22:03:47.338Z,14.67
2023-05-19T22:06:19.157Z,14.61
2023-05-19T22:08:51.075Z,14.58
2023-05-19T22:11:22.845Z,14.53
2023-05-19T22:13:55.355Z,14.52
2023-05-19T22:16:27.357Z,14.54
2023-05-19T22:18:59.295Z,14.56
2023-05-19T22:21:31.279Z,14.56
2023-05-19T22:24:03.117Z,14.55
2023-05-19T22:26:35.840Z,14.54
2023-05-19T22:29:07.960Z,14.55
2023-05-19T22:31:39.842Z,14.58
2023-05-19T22:34:12.700Z,14.58
2023-05-19T22:36:46.050Z,14.57
2023-05-19T22:39:17.818Z,14.60
2023-05-19T22:41:49.585Z,14.64
2023-05-19T22:44:21.610Z,14.70
2023-05-19T22:46:53.656Z,14.75
2023-05-19T22:49:25.791Z,14.82
2023-05-19T22:51:57.823Z,14.84
2023-05-19T22:54:29.675Z,14.81
2023-05-19T22:57:01.542Z,14.74
2023-05-19T22:59:33.682Z,14.68
2023-05-19T23:02:05.726Z,14.70
2023-05-19T23:04:37.905Z,14.72
2023-05-19T23:07:09.978Z,14.74
2023-05-19T23:09:41.806Z,14.73
2023-05-19T23:12:13.828Z,14.70
2023-05-19T23:14:45.648Z,14.67
2023-05-19T23:17:17.465Z,14.63
2023-05-19T23:19:49.254Z,14.64
2023-05-19T23:22:21.055Z,14.65
2023-05-19T23:24:53.166Z,14.62
2023-05-19T23:27:25.529Z,14.58
2023-05-19T23:29:57.891Z,14.53
2023-05-19T23:32:29.952Z,14.48
2023-05-19T23:35:12.055Z,14.44
2023-05-19T23:37:43.965Z,14.43
2023-05-19T23:40:16.506Z,14.41
2023-05-19T23:42:48.293Z,14.39
2023-05-19T23:45:20.345Z,14.41
2023-05-19T23:47:52.533Z,14.40
2023-05-19T23:50:24.504Z,14.39
2023-05-19T23:52:56.366Z,14.34
2023-05-19T23:55:28.381Z,14.31
2023-05-19T23:58:00.297Z,14.28
